createdAt,value
2023-02-06T00:02:04.468Z,6.80
2023-02-06T00:04:31.382Z,6.80
2023-02-06T00:06:58.232Z,6.80
2023-02-06T00:09:26.433Z,6.80
2023-02-06T00:11:53.215Z,6.80
2023-02-06T00:14:20.014Z,6.80
2023-02-06T00:16:46.860Z,6.80
2023-02-06T00:19:13.784Z,6.70
2023-02-06T00:21:40.724Z,6.70
2023-02-06T00:24:07.731Z,6.70
2023-02-06T00:26:36.004Z,6.70
2023-02-06T00:29:03.039Z,6.70
2023-02-06T00:31:30.024Z,6.60
2023-02-06T00:33:56.869Z,6.70
2023-02-06T00:36:23.725Z,6.70
2023-02-06T00:38:50.521Z,6.70
2023-02-06T00:41:17.425Z,6.70
2023-02-06T00:43:45.871Z,6.70
2023-02-06T00:46:12.709Z,6.70
2023-02-06T00:48:39.623Z,6.70
2023-02-06T00:51:06.444Z,6.70
2023-02-06T00:53:33.511Z,6.70
2023-02-06T00:56:00.368Z,6.70
2023-02-06T00:58:27.209Z,6.70
2023-02-06T01:00:55.480Z,6.70
2023-02-06T01:03:22.434Z,6.70
2023-02-06T01:05:49.296Z,6.70
2023-02-06T01:08:16.212Z,6.70
2023-02-06T01:10:44.101Z,6.60
2023-02-06T01:13:11.582Z,6.60
2023-02-06T01:15:38.438Z,6.50
2023-02-06T01:18:06.641Z,6.50
2023-02-06T01:20:33.917Z,6.40
2023-02-06T01:23:00.744Z,6.30
2023-02-06T01:25:28.276Z,6.30
2023-02-06T01:27:55.132Z,6.20
2023-02-06T01:30:22.255Z,6.10
2023-02-06T01:32:49.265Z,6.10
2023-02-06T01:35:17.644Z,6.10
2023-02-06T01:37:44.489Z,6.00
2023-02-06T01:40:14.464Z,6.00
2023-02-06T01:42:42.026Z,5.80
2023-02-06T01:45:34.512Z,6.00
2023-02-06T01:48:05.071Z,5.90
2023-02-06T01:50:35.888Z,5.90
2023-02-06T01:53:04.803Z,5.80
2023-02-06T01:55:32.555Z,5.80
2023-02-06T01:58:01.098Z,5.70
2023-02-06T02:00:28.121Z,5.70
2023-02-06T02:02:55.268Z,5.60
2023-02-06T02:05:22.381Z,5.60
2023-02-06T02:08:01.158Z,5.60
2023-02-06T02:10:29.605Z,5.60
2023-02-06T02:12:56.486Z,5.50
2023-02-06T02:15:30.701Z,5.50
2023-02-06T02:18:06.037Z,5.50
2023-02-06T02:20:57.329Z,5.40
2023-02-06T02:23:35.775Z,5.50
2023-02-06T02:26:33.954Z,5.50
2023-02-06T02:29:27.973Z,5.50
2023-02-06T02:32:29.027Z,5.50
2023-02-06T02:35:17.797Z,5.50
2023-02-06T02:37:58.434Z,5.50
2023-02-06T02:40:31.187Z,5.50
2023-02-06T02:43:08.849Z,5.50
2023-02-06T02:45:43.409Z,5.50
2023-02-06T02:48:14.945Z,5.50
2023-02-06T02:50:43.714Z,5.50
2023-02-06T02:53:12.282Z,5.50
2023-02-06T02:55:39.277Z,5.50
2023-02-06T02:58:09.064Z,5.50
2023-02-06T03:00:41.309Z,5.60
2023-02-06T03:03:11.052Z,5.60
2023-02-06T03:05:43.105Z,5.60
2023-02-06T03:08:18.571Z,5.70
2023-02-06T03:10:53.464Z,5.70
2023-02-06T03:13:26.391Z,5.70
2023-02-06T03:15:58.339Z,5.70
2023-02-06T03:18:34.717Z,5.70
2023-02-06T03:21:04.160Z,5.80
2023-02-06T03:23:37.527Z,5.80
2023-02-06T03:26:08.111Z,5.80
2023-02-06T03:28:38.318Z,5.90
2023-02-06T03:31:08.919Z,5.90
2023-02-06T03:33:39.886Z,5.90
2023-02-06T03:36:09.989Z,5.90
2023-02-06T03:38:38.198Z,5.90
2023-02-06T03:41:06.114Z,5.90
2023-02-06T03:43:33.208Z,5.90
2023-02-06T03:46:02.303Z,5.80
2023-02-06T03:48:34.671Z,5.80
2023-02-06T03:51:08.026Z,5.80
2023-02-06T03:53:36.577Z,5.70
2023-02-06T03:56:09.909Z,5.60
2023-02-06T03:58:39.805Z,5.60
2023-02-06T04:01:07.919Z,5.60
2023-02-06T04:03:35.384Z,5.60
2023-02-06T04:06:02.257Z,5.60
2023-02-06T04:08:29.301Z,5.60
2023-02-06T04:10:56.244Z,5.60
2023-02-06T04:13:24.501Z,5.70
2023-02-06T04:15:51.372Z,5.70
2023-02-06T04:18:18.203Z,5.70
2023-02-06T04:20:45.008Z,5.70
2023-02-06T04:23:11.925Z,5.70
2023-02-06T04:25:38.896Z,5.70
2023-02-06T04:28:05.922Z,5.80
2023-02-06T04:30:34.390Z,5.80
2023-02-06T04:33:01.288Z,5.90
2023-02-06T04:35:28.314Z,5.80
2023-02-06T04:37:55.312Z,5.80
2023-02-06T04:40:22.663Z,5.80
2023-02-06T04:42:49.601Z,5.80
2023-02-06T04:45:16.560Z,5.80
2023-02-06T04:47:45.019Z,5.90
2023-02-06T04:50:11.872Z,5.90
2023-02-06T04:52:38.659Z,5.90
2023-02-06T04:55:06.005Z,5.90
2023-02-06T04:57:32.833Z,5.90
2023-02-06T04:59:59.685Z,5.90
2023-02-06T05:02:26.571Z,5.90
2023-02-06T05:04:54.707Z,5.90
2023-02-06T05:07:21.616Z,5.90
2023-02-06T05:09:48.403Z,5.90
2023-02-06T05:12:15.255Z,5.90
2023-02-06T05:14:42.120Z,5.90
2023-02-06T05:17:08.966Z,5.90
2023-02-06T05:19:35.877Z,5.90
2023-02-06T05:22:04.281Z,5.90
2023-02-06T05:24:31.372Z,5.90
2023-02-06T05:26:58.431Z,5.90
2023-02-06T05:29:25.817Z,5.90
2023-02-06T05:31:53.323Z,5.80
2023-02-06T05:34:20.316Z,5.70
2023-02-06T05:36:47.208Z,5.70
2023-02-06T05:39:15.584Z,5.60
2023-02-06T05:41:42.412Z,5.60
2023-02-06T05:44:10.927Z,5.60
2023-02-06T05:46:38.268Z,5.60
2023-02-06T05:49:05.470Z,5.50
2023-02-06T05:51:32.323Z,5.60
2023-02-06T05:53:59.203Z,5.60
2023-02-06T05:56:27.478Z,5.60
2023-02-06T05:58:54.343Z,5.60
2023-02-06T06:01:21.169Z,5.60
2023-02-06T06:03:48.084Z,5.60
2023-02-06T06:06:14.994Z,5.50
2023-02-06T06:08:41.901Z,5.50
2023-02-06T06:11:08.699Z,5.50
2023-02-06T06:13:36.914Z,5.40
2023-02-06T06:16:04.275Z,5.50
2023-02-06T06:18:31.192Z,5.50
2023-02-06T06:20:58.000Z,5.50
2023-02-06T06:23:24.876Z,5.50
2023-02-06T06:25:51.785Z,5.50
2023-02-06T06:28:18.757Z,5.50
2023-02-06T06:30:47.049Z,5.50
2023-02-06T06:33:16.339Z,5.50
2023-02-06T06:35:43.272Z,5.50
2023-02-06T06:38:10.241Z,5.50
2023-02-06T06:40:37.118Z,5.50
2023-02-06T06:43:04.259Z,5.50
2023-02-06T06:45:31.159Z,5.50
2023-02-06T06:47:59.441Z,5.50
2023-02-06T06:50:26.446Z,5.50
2023-02-06T06:52:53.372Z,5.60
2023-02-06T06:55:20.292Z,5.50
2023-02-06T06:57:47.317Z,5.50
2023-02-06T07:00:15.881Z,5.50
2023-02-06T07:02:43.119Z,5.50
2023-02-06T07:05:11.905Z,5.50
2023-02-06T07:07:39.633Z,5.50
2023-02-06T07:10:07.910Z,5.40
2023-02-06T07:12:35.031Z,5.40
2023-02-06T07:15:02.074Z,5.40
2023-02-06T07:17:28.886Z,5.50
2023-02-06T07:19:55.776Z,5.50
2023-02-06T07:22:25.515Z,5.50
2023-02-06T07:24:54.423Z,5.60
2023-02-06T07:27:21.473Z,5.60
2023-02-06T07:29:48.391Z,5.60
2023-02-06T07:32:15.186Z,5.70
2023-02-06T07:34:42.500Z,5.70
2023-02-06T07:37:09.339Z,5.70
2023-02-06T07:39:37.584Z,5.70
2023-02-06T07:42:05.330Z,5.80
2023-02-06T07:44:32.428Z,5.80
2023-02-06T07:46:59.370Z,5.90
2023-02-06T07:49:26.492Z,6.00
2023-02-06T07:51:53.352Z,6.00
2023-02-06T07:54:20.972Z,6.10
2023-02-06T07:56:49.238Z,6.20
2023-02-06T07:59:18.269Z,6.20
2023-02-06T08:01:45.159Z,6.30
2023-02-06T08:04:12.326Z,6.40
2023-02-06T08:06:41.787Z,6.60
2023-02-06T08:09:12.158Z,6.80
2023-02-06T08:11:39.103Z,7.20
2023-02-06T08:14:07.410Z,7.60
2023-02-06T08:16:34.318Z,7.90
2023-02-06T08:19:01.249Z,8.40
2023-02-06T08:21:28.279Z,8.90
2023-02-06T08:23:55.581Z,9.40
2023-02-06T08:26:24.136Z,9.80
2023-02-06T08:28:51.944Z,10.30
2023-02-06T08:31:22.500Z,10.80
2023-02-06T08:33:50.317Z,11.60
2023-02-06T08:36:18.460Z,12.30
2023-02-06T08:38:45.969Z,13.00
2023-02-06T08:41:18.691Z,13.80
2023-02-06T08:43:45.996Z,14.50
2023-02-06T08:46:13.074Z,15.00
2023-02-06T08:48:41.472Z,15.50
2023-02-06T08:51:10.004Z,15.90
2023-02-06T08:53:37.467Z,16.20
2023-02-06T08:56:06.449Z,16.60
2023-02-06T08:58:33.853Z,17.00
2023-02-06T09:01:06.326Z,17.20
2023-02-06T09:03:33.342Z,17.20
2023-02-06T09:06:09.496Z,16.90
2023-02-06T09:08:37.290Z,16.50
2023-02-06T09:11:07.985Z,16.20
2023-02-06T09:13:35.251Z,16.30
2023-02-06T09:16:02.891Z,16.60
2023-02-06T09:18:29.828Z,17.00
2023-02-06T09:21:11.338Z,17.60
2023-02-06T09:23:38.552Z,18.00
2023-02-06T09:26:06.003Z,18.50
2023-02-06T09:28:33.681Z,18.90
2023-02-06T09:31:01.062Z,19.30
2023-02-06T09:33:28.414Z,19.50
2023-02-06T09:36:01.647Z,19.40
2023-02-06T09:38:30.256Z,19.20
2023-02-06T09:40:58.945Z,18.90
2023-02-06T09:43:26.284Z,18.20
2023-02-06T09:45:59.696Z,17.70
2023-02-06T09:48:29.231Z,16.90
2023-02-06T09:51:06.665Z,16.60
2023-02-06T09:53:45.780Z,16.50
2023-02-06T09:56:21.081Z,16.70
2023-02-06T09:58:53.791Z,17.00
2023-02-06T10:01:28.966Z,17.30
2023-02-06T10:04:12.496Z,17.60
2023-02-06T10:06:47.655Z,18.00
2023-02-06T10:09:21.015Z,18.60
2023-02-06T10:11:54.395Z,19.10
2023-02-06T10:14:27.144Z,19.70
2023-02-06T10:16:58.594Z,20.30
2023-02-06T10:30:39.776Z,20.90
2023-02-06T10:33:25.373Z,21.20
2023-02-06T10:36:02.601Z,21.20
2023-02-06T10:38:54.436Z,21.40
2023-02-06T10:41:31.433Z,21.30
2023-02-06T10:44:04.219Z,21.10
2023-02-06T10:50:21.733Z,20.00
2023-02-06T10:52:49.231Z,20.10
2023-02-06T10:55:20.328Z,19.90
2023-02-06T10:57:51.026Z,19.40
2023-02-06T11:00:24.586Z,18.70
2023-02-06T11:03:07.118Z,17.80
2023-02-06T11:05:36.925Z,16.90
2023-02-06T11:08:13.463Z,15.90
2023-02-06T11:10:41.069Z,15.30
2023-02-06T11:13:13.945Z,15.00
2023-02-06T11:15:47.199Z,15.00
2023-02-06T11:18:18.750Z,15.20
2023-02-06T11:20:49.322Z,15.40
2023-02-06T11:23:18.812Z,15.40
2023-02-06T11:25:49.296Z,15.50
2023-02-06T11:28:19.097Z,15.40
2023-02-06T11:30:56.104Z,15.10
2023-02-06T11:33:29.155Z,14.80
2023-02-06T11:36:02.559Z,14.30
2023-02-06T11:38:31.778Z,13.90
2023-02-06T11:41:01.511Z,13.60
2023-02-06T11:43:31.854Z,13.40
2023-02-06T11:46:15.398Z,13.10
2023-02-06T11:48:44.305Z,12.90
2023-02-06T11:51:13.926Z,12.60
2023-02-06T11:53:55.335Z,12.40
2023-02-06T11:56:22.422Z,12.30
2023-02-06T11:59:04.946Z,12.20
2023-02-06T12:01:42.266Z,12.00
2023-02-06T12:04:23.452Z,11.70
2023-02-06T12:06:55.139Z,11.40
2023-02-06T12:09:22.066Z,11.10
2023-02-06T12:11:53.544Z,10.80
2023-02-06T12:14:24.622Z,10.60
2023-02-06T12:16:52.865Z,10.50
2023-02-06T12:19:24.065Z,10.40
2023-02-06T12:21:56.394Z,10.20
2023-02-06T12:24:29.898Z,10.00
2023-02-06T12:26:59.351Z,10.00
2023-02-06T12:29:30.190Z,9.90
2023-02-06T12:32:05.652Z,9.90
2023-02-06T12:34:48.701Z,10.00
2023-02-06T12:37:23.081Z,10.10
2023-02-06T12:39:52.660Z,10.20
2023-02-06T12:42:39.309Z,10.30
2023-02-06T12:45:23.922Z,10.40
2023-02-06T12:47:54.751Z,10.40
2023-02-06T12:50:25.312Z,10.30
2023-02-06T12:52:59.580Z,10.30
2023-02-06T12:55:31.745Z,10.30
2023-02-06T12:57:59.087Z,10.40
2023-02-06T13:01:06.700Z,10.60
2023-02-06T13:03:40.659Z,10.80
2023-02-06T13:06:14.514Z,11.00
2023-02-06T13:08:47.815Z,11.00
2023-02-06T13:11:25.495Z,11.00
2023-02-06T13:14:00.848Z,10.80
2023-02-06T13:16:39.090Z,10.70
2023-02-06T13:19:06.093Z,10.70
2023-02-06T13:21:35.137Z,10.60
2023-02-06T13:24:19.090Z,10.60
2023-02-06T13:27:03.742Z,10.70
2023-02-06T13:29:33.471Z,10.80
2023-02-06T13:32:32.294Z,10.90
2023-02-06T13:35:13.557Z,10.90
2023-02-06T13:37:42.449Z,10.80
2023-02-06T13:40:22.944Z,10.90
2023-02-06T13:42:51.869Z,10.80
2023-02-06T13:45:22.118Z,10.80
2023-02-06T13:48:26.722Z,10.80
2023-02-06T13:51:35.162Z,10.80
2023-02-06T13:54:56.203Z,10.70
2023-02-06T13:57:32.657Z,10.60
2023-02-06T14:00:02.744Z,10.50
2023-02-06T14:02:36.479Z,10.20
2023-02-06T14:05:06.763Z,10.30
2023-02-06T14:08:13.420Z,10.20
2023-02-06T14:11:19.266Z,10.00
2023-02-06T14:14:14.773Z,9.80
2023-02-06T14:16:49.777Z,9.80
2023-02-06T14:19:25.610Z,9.80
2023-02-06T14:22:02.606Z,9.70
2023-02-06T14:25:11.446Z,9.70
2023-02-06T14:27:59.868Z,9.80
2023-02-06T14:30:37.179Z,9.90
2023-02-06T14:33:18.179Z,10.00
2023-02-06T14:36:00.613Z,10.20
2023-02-06T14:38:56.538Z,10.30
2023-02-06T14:41:27.069Z,10.40
2023-02-06T14:43:53.996Z,10.50
2023-02-06T14:46:22.384Z,10.50
2023-02-06T14:48:52.057Z,10.50
2023-02-06T14:51:23.749Z,10.60
2023-02-06T14:53:56.444Z,10.60
2023-02-06T14:56:29.050Z,10.70
2023-02-06T14:58:56.171Z,10.70
2023-02-06T15:01:27.510Z,10.80
2023-02-06T15:04:10.554Z,10.80
2023-02-06T15:09:28.340Z,10.50
2023-02-06T15:11:57.374Z,10.40
2023-02-06T15:14:26.120Z,10.30
2023-02-06T15:16:59.134Z,10.10
2023-02-06T15:19:28.250Z,10.00
2023-02-06T15:21:59.740Z,9.90
2023-02-06T15:25:02.364Z,9.80
2023-02-06T15:27:32.012Z,9.70
2023-02-06T15:30:00.053Z,9.70
2023-02-06T15:32:30.816Z,9.60
2023-02-06T15:34:58.827Z,9.60
2023-02-06T15:37:29.365Z,9.60
2023-02-06T15:40:01.029Z,9.50
2023-02-06T15:42:28.192Z,9.50
2023-02-06T15:44:55.164Z,9.40
2023-02-06T15:47:22.640Z,9.40
2023-02-06T15:49:51.920Z,9.30
2023-02-06T15:52:33.984Z,9.20
2023-02-06T15:55:01.598Z,9.20
2023-02-06T15:57:31.487Z,9.10
2023-02-06T15:59:58.619Z,9.00
2023-02-06T16:02:32.882Z,8.90
2023-02-06T16:05:02.440Z,8.80
2023-02-06T16:07:32.416Z,8.80
2023-02-06T16:10:16.906Z,8.70
2023-02-06T16:12:44.044Z,8.60
2023-02-06T16:15:26.509Z,8.50
2023-02-06T16:17:54.258Z,8.40
2023-02-06T16:20:39.244Z,8.40
2023-02-06T16:23:21.043Z,8.30
2023-02-06T16:25:49.614Z,8.20
2023-02-06T16:28:22.947Z,8.20
2023-02-06T16:30:54.901Z,8.20
2023-02-06T16:33:31.632Z,8.10
2023-02-06T16:36:00.344Z,8.10
2023-02-06T16:38:27.378Z,8.10
2023-02-06T16:40:54.500Z,8.10
2023-02-06T16:43:21.999Z,8.10
2023-02-06T16:45:49.837Z,8.00
2023-02-06T16:48:17.710Z,8.00
2023-02-06T16:50:45.527Z,7.90
2023-02-06T16:53:25.504Z,7.90
2023-02-06T16:55:52.428Z,7.80
2023-02-06T16:58:21.708Z,7.80
2023-02-06T17:00:49.462Z,7.70
2023-02-06T17:03:17.417Z,7.70
2023-02-06T17:05:46.463Z,7.70
2023-02-06T17:08:20.287Z,7.60
2023-02-06T17:10:47.725Z,7.60
2023-02-06T17:13:15.970Z,7.50
2023-02-06T17:15:44.131Z,7.50
2023-02-06T17:18:13.595Z,7.40
2023-02-06T17:20:42.240Z,7.40
2023-02-06T17:23:12.216Z,7.30
2023-02-06T17:25:42.167Z,7.30
2023-02-06T17:28:11.374Z,7.20
2023-02-06T17:30:38.809Z,7.20
2023-02-06T17:33:06.304Z,7.10
2023-02-06T17:35:36.449Z,7.10
2023-02-06T17:38:03.727Z,7.00
2023-02-06T17:40:33.888Z,7.00
2023-02-06T17:43:04.599Z,6.90
2023-02-06T17:45:32.127Z,6.90
2023-02-06T17:47:59.221Z,6.90
2023-02-06T17:50:27.563Z,6.90
2023-02-06T17:52:56.015Z,6.80
2023-02-06T17:55:23.883Z,6.80
2023-02-06T17:57:51.122Z,6.80
2023-02-06T18:00:23.162Z,6.80
2023-02-06T18:02:50.235Z,6.80
2023-02-06T18:05:17.312Z,6.80
2023-02-06T18:07:44.457Z,6.80
2023-02-06T18:10:12.686Z,6.80
2023-02-06T18:12:42.339Z,6.80
2023-02-06T18:15:10.619Z,6.80
2023-02-06T18:17:38.932Z,6.80
2023-02-06T18:20:07.034Z,6.80
2023-02-06T18:22:40.933Z,6.90
2023-02-06T18:25:08.306Z,6.90
2023-02-06T18:27:35.114Z,6.90
2023-02-06T18:30:04.286Z,6.90
2023-02-06T18:32:31.788Z,6.80
2023-02-06T18:35:00.288Z,6.90
2023-02-06T18:37:27.435Z,6.80
2023-02-06T18:39:55.309Z,6.70
2023-02-06T18:42:41.509Z,6.70
2023-02-06T18:45:09.368Z,6.60
2023-02-06T18:47:36.369Z,6.60
2023-02-06T18:50:05.233Z,6.50
2023-02-06T18:52:32.140Z,6.50
2023-02-06T18:54:59.097Z,6.50
2023-02-06T18:57:25.975Z,6.40
2023-02-06T18:59:52.811Z,6.40
2023-02-06T19:02:19.786Z,6.40
2023-02-06T19:04:46.874Z,6.40
2023-02-06T19:07:16.541Z,6.40
2023-02-06T19:09:43.528Z,6.40
2023-02-06T19:12:10.535Z,6.30
2023-02-06T19:14:37.515Z,6.30
2023-02-06T19:17:04.384Z,6.30
2023-02-06T19:19:31.391Z,6.30
2023-02-06T19:21:58.342Z,6.30
2023-02-06T19:24:28.187Z,6.20
2023-02-06T19:26:56.440Z,6.20
2023-02-06T19:29:34.865Z,6.20
2023-02-06T19:32:03.686Z,6.10
2023-02-06T19:34:30.647Z,6.10
2023-02-06T19:36:57.523Z,6.10
2023-02-06T19:39:25.992Z,6.00
2023-02-06T19:41:52.846Z,6.00
2023-02-06T19:44:19.724Z,6.00
2023-02-06T19:46:46.625Z,5.90
2023-02-06T19:49:13.551Z,5.80
2023-02-06T19:51:42.125Z,5.80
2023-02-06T19:54:09.086Z,5.70
2023-02-06T19:56:39.915Z,5.60
2023-02-06T19:59:17.956Z,5.50
2023-02-06T20:01:45.643Z,5.30
2023-02-06T20:04:12.682Z,5.10
2023-02-06T20:06:40.011Z,5.00
2023-02-06T20:09:07.000Z,4.90
2023-02-06T20:11:34.009Z,4.80
2023-02-06T20:14:02.322Z,4.70
2023-02-06T20:16:34.965Z,4.70
2023-02-06T20:19:06.602Z,4.60
2023-02-06T20:21:38.756Z,4.60
2023-02-06T20:24:14.520Z,4.60
2023-02-06T20:26:42.516Z,4.60
2023-02-06T20:29:20.495Z,4.70
2023-02-06T20:31:48.034Z,4.70
2023-02-06T20:34:15.331Z,4.60
2023-02-06T20:36:42.493Z,4.60
2023-02-06T20:39:11.781Z,4.60
2023-02-06T20:41:39.434Z,4.60
2023-02-06T20:44:07.523Z,4.60
2023-02-06T20:46:36.470Z,4.70
2023-02-06T20:49:05.715Z,4.70
2023-02-06T20:51:32.635Z,4.70
2023-02-06T20:53:59.624Z,4.70
2023-02-06T20:56:27.170Z,4.70
2023-02-06T20:58:54.224Z,4.70
2023-02-06T21:01:23.085Z,4.70
2023-02-06T21:03:54.054Z,4.80
2023-02-06T21:06:21.253Z,4.80
2023-02-06T21:08:50.249Z,4.80
2023-02-06T21:11:18.853Z,4.80
2023-02-06T21:13:45.671Z,4.80
2023-02-06T21:16:13.715Z,4.80
2023-02-06T21:18:42.556Z,4.80
2023-02-06T21:21:13.910Z,4.80
2023-02-06T21:23:42.311Z,4.70
2023-02-06T21:26:10.113Z,4.70
2023-02-06T21:28:37.868Z,4.70
2023-02-06T21:31:07.525Z,4.70
2023-02-06T21:33:35.062Z,4.70
2023-02-06T21:36:02.831Z,4.70
2023-02-06T21:38:31.107Z,4.70
2023-02-06T21:41:03.846Z,4.60
2023-02-06T21:43:30.783Z,4.70
2023-02-06T21:45:58.008Z,4.80
2023-02-06T21:48:24.910Z,4.70
2023-02-06T21:50:51.825Z,4.70
2023-02-06T21:53:18.770Z,4.60
2023-02-06T21:55:46.969Z,4.70
2023-02-06T21:58:14.648Z,4.70
2023-02-06T22:00:42.430Z,4.70
2023-02-06T22:03:09.502Z,4.70
2023-02-06T22:05:36.714Z,4.70
2023-02-06T22:08:04.295Z,4.70
2023-02-06T22:10:31.528Z,4.70
2023-02-06T22:12:59.724Z,4.70
2023-02-06T22:15:26.651Z,4.70
2023-02-06T22:17:53.502Z,4.70
2023-02-06T22:20:20.432Z,4.70
2023-02-06T22:22:47.308Z,4.70
2023-02-06T22:25:14.204Z,4.70
2023-02-06T22:27:41.039Z,4.80
2023-02-06T22:30:10.962Z,4.80
2023-02-06T22:32:38.888Z,4.90
2023-02-06T22:35:06.733Z,4.80
2023-02-06T22:37:34.193Z,4.90
2023-02-06T22:40:01.183Z,4.90
2023-02-06T22:42:28.033Z,4.90
2023-02-06T22:44:54.990Z,4.90
2023-02-06T22:47:23.170Z,4.90
2023-02-06T22:49:51.372Z,4.90
2023-02-06T22:52:36.965Z,4.90
2023-02-06T22:55:05.737Z,4.90
2023-02-06T22:57:35.234Z,4.80
2023-02-06T23:00:02.194Z,4.80
2023-02-06T23:02:30.376Z,4.80
2023-02-06T23:04:57.208Z,4.80
2023-02-06T23:07:24.058Z,4.80
2023-02-06T23:09:50.931Z,4.70
2023-02-06T23:12:18.319Z,4.70
2023-02-06T23:14:45.135Z,4.70
2023-02-06T23:17:11.922Z,4.70
2023-02-06T23:19:40.379Z,4.70
2023-02-06T23:22:07.881Z,4.70
2023-02-06T23:24:37.696Z,4.70
2023-02-06T23:27:04.621Z,4.80
2023-02-06T23:29:31.544Z,5.00
2023-02-06T23:31:58.424Z,5.00
2023-02-06T23:34:25.461Z,5.00
2023-02-06T23:36:53.834Z,5.00
2023-02-06T23:39:20.741Z,5.00
2023-02-06T23:41:47.580Z,5.00
2023-02-06T23:44:14.514Z,4.90
2023-02-06T23:46:41.854Z,4.90
2023-02-06T23:49:11.618Z,5.00
2023-02-06T23:51:38.802Z,4.90
2023-02-06T23:54:08.368Z,4.90
2023-02-06T23:56:35.409Z,4.90
2023-02-06T23:59:03.045Z,4.80
